Wetterdaten: Woche 30.08.21 - 05.09.21 (KW35)
Datum Zeit Temp. Aussen Temp. o. S. Temp +5cm Feuchte Auss Luftdruck Regen Sonnenschein Regendauer Solar Windben Empfang
30.08.2021 00:00 16,2 C 15,5 C 15,7 C 98 % 1018,8 hPa 0,0 l/m 0,00 h 0,00 h 0 W/m 10,4 km/h (2 Bft) 98,24 %
30.08.2021 01:00 16,0 C 15,5 C 15,6 C 98 % 1019,0 hPa 0,0 l/m 0,00 h 0,00 h 0 W/m 7,2 km/h (2 Bft) 97,49 %
30.08.2021 02:00 16,0 C 15,1 C 15,6 C 98 % 1019,1 hPa 0,0 l/m 0,00 h 0,00 h 0 W/m 10,2 km/h (2 Bft) 96,43 %
30.08.2021 03:00 15,8 C 15,0 C 15,6 C 98 % 1019,1 hPa 0,0 l/m 0,00 h 0,00 h 0 W/m 6,9 km/h (2 Bft) 99,79 %
30.08.2021 04:00 15,5 C 15,0 C 15,6 C 98 % 1019,3 hPa 0,0 l/m 0,00 h 0,00 h 0 W/m 10,8 km/h (2 Bft) 95,57 %
30.08.2021 05:00 15,5 C 15,0 C 15,6 C 98 % 1019,2 hPa 0,0 l/m 0,00 h 0,00 h 0 W/m 8,9 km/h (2 Bft) 98,51 %
30.08.2021 06:00 15,5 C 15,0 C 15,6 C 98 % 1019,3 hPa 0,0 l/m 0,00 h 0,00 h 0 W/m 10,7 km/h (2 Bft) 98,67 %
30.08.2021 07:00 15,6 C 15,0 C 15,6 C 98 % 1019,6 hPa 0,0 l/m 0,00 h 0,00 h 17 W/m 8,2 km/h (2 Bft) 94,81 %
30.08.2021 08:00 16,0 C 15,7 C 16,0 C 97 % 1019,7 hPa 0,0 l/m 0,00 h 0,00 h 61 W/m 9,3 km/h (2 Bft) 97,80 %
30.08.2021 09:00 16,3 C 16,0 C 16,3 C 97 % 1019,8 hPa 0,0 l/m 0,00 h 0,00 h 70 W/m 10,5 km/h (2 Bft) 98,23 %
30.08.2021 10:00 16,6 C 16,4 C 16,7 C 96 % 1020,1 hPa 0,0 l/m 0,00 h 0,00 h 79 W/m 10,0 km/h (2 Bft) 94,38 %
30.08.2021 11:00 17,6 C 18,1 C 18,0 C 93 % 1020,1 hPa 0,0 l/m 0,03 h 0,00 h 229 W/m 12,3 km/h (3 Bft) 98,84 %
30.08.2021 12:00 18,9 C 19,3 C 19,0 C 88 % 1019,9 hPa 0,0 l/m 0,10 h 0,00 h 250 W/m 14,9 km/h (3 Bft) 97,52 %
30.08.2021 13:00 18,9 C 18,4 C 17,8 C 86 % 1020,0 hPa 0,0 l/m 0,00 h 0,10 h 103 W/m 9,7 km/h (2 Bft) 97,39 %
30.08.2021 14:00 19,6 C 20,8 C 19,1 C 85 % 1020,0 hPa 0,0 l/m 0,33 h 0,00 h 315 W/m 10,4 km/h (2 Bft) 97,37 %
30.08.2021 15:00 20,7 C 21,2 C 19,1 C 78 % 1019,8 hPa 0,0 l/m 0,27 h 0,07 h 222 W/m 8,5 km/h (2 Bft) 97,61 %
30.08.2021 16:00 20,4 C 20,3 C 18,7 C 79 % 1019,9 hPa 0,0 l/m 0,07 h 0,00 h 167 W/m 12,0 km/h (2 Bft) 97,31 %
30.08.2021 17:00 20,1 C 19,9 C 18,4 C 81 % 1020,0 hPa 0,0 l/m 0,00 h 0,00 h 158 W/m 11,9 km/h (2 Bft) 94,79 %
30.08.2021 18:00 20,6 C 22,8 C 18,9 C 79 % 1019,9 hPa 0,0 l/m 0,60 h 0,00 h 198 W/m 11,6 km/h (2 Bft) 96,90 %
30.08.2021 19:00 20,0 C 19,2 C 17,7 C 79 % 1019,9 hPa 0,0 l/m 0,03 h 0,00 h 47 W/m 10,7 km/h (2 Bft) 99,00 %
30.08.2021 20:00 18,8 C 17,5 C 16,2 C 83 % 1020,4 hPa 0,0 l/m 0,00 h 0,00 h 10 W/m 6,6 km/h (2 Bft) 94,45 %
30.08.2021 21:00 17,7 C 16,4 C 15,2 C 87 % 1020,9 hPa 0,0 l/m 0,00 h 0,00 h 0 W/m 6,3 km/h (2 Bft) 98,72 %
30.08.2021 22:00 17,0 C 16,1 C 15,2 C 89 % 1021,1 hPa 0,0 l/m 0,00 h 0,00 h 0 W/m 10,9 km/h (2 Bft) 97,51 %
30.08.2021 23:00 16,5 C 15,7 C 14,8 C 88 % 1021,4 hPa 0,0 l/m 0,00 h 0,00 h 0 W/m 8,6 km/h (2 Bft) 96,86 %
31.08.2021 00:00 15,8 C 14,7 C 14,1 C 89 % 1021,9 hPa 0,0 l/m 0,00 h 0,00 h 0 W/m 5,9 km/h (2 Bft) 97,89 %
31.08.2021 01:00 15,1 C 14,0 C 13,4 C 91 % 1022,3 hPa 0,0 l/m 0,00 h 0,00 h 0 W/m 4,9 km/h (1 Bft) 98,28 %
31.08.2021 02:00 14,5 C 13,4 C 13,4 C 93 % 1022,6 hPa 0,0 l/m 0,00 h 0,00 h 0 W/m 4,7 km/h (1 Bft) 97,08 %
31.08.2021 03:00 14,1 C 13,0 C 12,9 C 94 % 1022,9 hPa 0,0 l/m 0,00 h 0,00 h 0 W/m 4,5 km/h (1 Bft) 97,72 %
31.08.2021 04:00 13,7 C 12,8 C 12,7 C 95 % 1023,2 hPa 0,0 l/m 0,00 h 0,00 h 0 W/m 4,5 km/h (1 Bft) 97,74 %
31.08.2021 05:00 13,6 C 12,8 C 12,8 C 96 % 1023,2 hPa 0,0 l/m 0,00 h 0,00 h 0 W/m 7,2 km/h (2 Bft) 97,87 %
31.08.2021 06:00 13,8 C 13,2 C 13,3 C 97 % 1023,7 hPa 0,0 l/m 0,00 h 0,00 h 0 W/m 6,7 km/h (2 Bft) 96,49 %
31.08.2021 07:00 14,0 C 13,6 C 13,7 C 98 % 1024,2 hPa 0,0 l/m 0,00 h 0,00 h 15 W/m 9,1 km/h (2 Bft) 98,50 %
31.08.2021 08:00 14,1 C 13,9 C 14,0 C 98 % 1024,7 hPa 0,0 l/m 0,00 h 0,00 h 42 W/m 10,8 km/h (2 Bft) 95,52 %
31.08.2021 09:00 14,3 C 14,3 C 14,5 C 97 % 1025,1 hPa 0,0 l/m 0,00 h 0,00 h 73 W/m 10,5 km/h (2 Bft) 95,79 %
31.08.2021 10:00 15,1 C 15,1 C 15,0 C 95 % 1025,5 hPa 0,0 l/m 0,00 h 0,00 h 84 W/m 10,5 km/h (2 Bft) 98,33 %
31.08.2021 11:00 16,0 C 16,7 C 16,1 C 93 % 1025,6 hPa 0,0 l/m 0,07 h 0,00 h 216 W/m 11,2 km/h (2 Bft) 96,45 %
31.08.2021 12:00 18,2 C 19,7 C 18,7 C 84 % 1025,5 hPa 0,0 l/m 0,40 h 0,00 h 427 W/m 13,2 km/h (3 Bft) 96,99 %
31.08.2021 13:00 19,8 C 20,9 C 18,2 C 74 % 1025,5 hPa 0,0 l/m 0,67 h 0,00 h 597 W/m 13,0 km/h (3 Bft) 98,34 %
31.08.2021 14:00 21,0 C 24,5 C 18,7 C 70 % 1025,4 hPa 0,0 l/m 0,87 h 0,00 h 651 W/m 17,7 km/h (3 Bft) 97,37 %
31.08.2021 15:00 21,9 C 25,0 C 18,9 C 65 % 1025,2 hPa 0,0 l/m 0,67 h 0,00 h 533 W/m 14,7 km/h (3 Bft) 98,22 %
31.08.2021 16:00 21,8 C 25,4 C 19,1 C 66 % 1025,0 hPa 0,0 l/m 0,70 h 0,00 h 420 W/m 12,7 km/h (3 Bft) 96,23 %
31.08.2021 17:00 22,2 C 26,2 C 19,5 C 66 % 1024,9 hPa 0,0 l/m 0,77 h 0,00 h 352 W/m 12,2 km/h (3 Bft) 99,36 %
31.08.2021 18:00 21,7 C 23,1 C 18,8 C 67 % 1024,8 hPa 0,0 l/m 0,47 h 0,00 h 144 W/m 12,4 km/h (3 Bft) 97,50 %
31.08.2021 19:00 20,7 C 19,8 C 17,3 C 71 % 1024,9 hPa 0,0 l/m 0,00 h 0,00 h 38 W/m 9,9 km/h (2 Bft) 96,59 %
31.08.2021 20:00 19,1 C 17,9 C 15,8 C 78 % 1025,4 hPa 0,0 l/m 0,00 h 0,00 h 9 W/m 9,9 km/h (2 Bft) 98,09 %
31.08.2021 21:00 17,6 C 16,6 C 14,8 C 84 % 1026,1 hPa 0,0 l/m 0,00 h 0,00 h 0 W/m 15,2 km/h (3 Bft) 97,65 %
31.08.2021 22:00 16,2 C 15,2 C 13,7 C 87 % 1026,6 hPa 0,0 l/m 0,00 h 0,00 h 0 W/m 10,4 km/h (2 Bft) 96,38 %
31.08.2021 23:00 15,2 C 14,2 C 13,0 C 90 % 1027,1 hPa 0,0 l/m 0,00 h 0,00 h 0 W/m 6,0 km/h (2 Bft) 99,36 %
01.09.2021 00:00 14,4 C 13,4 C 12,3 C 91 % 1027,5 hPa 0,0 l/m 0,00 h 0,00 h 0 W/m 4,1 km/h (1 Bft) 93,38 %
01.09.2021 01:00 13,9 C 13,0 C 12,1 C 93 % 1027,5 hPa 0,0 l/m 0,00 h 0,00 h 0 W/m 3,3 km/h (1 Bft) 97,13 %
01.09.2021 02:00 14,0 C 13,7 C 12,7 C 94 % 1027,7 hPa 0,0 l/m 0,00 h 0,00 h 0 W/m 4,3 km/h (1 Bft) 97,40 %
01.09.2021 03:00 14,4 C 14,1 C 13,3 C 92 % 1027,7 hPa 0,0 l/m 0,00 h 0,00 h 0 W/m 7,0 km/h (2 Bft) 98,01 %
01.09.2021 04:00 14,7 C 14,0 C 13,3 C 90 % 1027,9 hPa 0,0 l/m 0,00 h 0,00 h 0 W/m 6,4 km/h (2 Bft) 97,48 %
01.09.2021 05:00 14,5 C 13,9 C 13,0 C 90 % 1027,8 hPa 0,0 l/m 0,00 h 0,00 h 0 W/m 4,0 km/h (1 Bft) 97,26 %
01.09.2021 06:00 14,6 C 13,9 C 13,2 C 90 % 1028,0 hPa 0,0 l/m 0,00 h 0,00 h 0 W/m 3,5 km/h (1 Bft) 97,82 %
01.09.2021 07:00 14,6 C 13,9 C 13,0 C 91 % 1028,2 hPa 0,0 l/m 0,00 h 0,00 h 12 W/m 3,7 km/h (1 Bft) 94,91 %
01.09.2021 08:00 14,7 C 14,3 C 13,4 C 92 % 1028,3 hPa 0,0 l/m 0,00 h 0,00 h 50 W/m 5,8 km/h (2 Bft) 99,44 %
01.09.2021 09:00 15,0 C 14,8 C 13,8 C 92 % 1028,6 hPa 0,0 l/m 0,00 h 0,00 h 83 W/m 7,0 km/h (2 Bft) 97,23 %
01.09.2021 10:00 15,2 C 15,1 C 13,9 C 90 % 1029,3 hPa 0,0 l/m 0,00 h 0,00 h 112 W/m 10,2 km/h (2 Bft) 97,22 %
01.09.2021 11:00 15,6 C 16,0 C 14,6 C 88 % 1029,4 hPa 0,0 l/m 0,00 h 0,00 h 148 W/m 7,6 km/h (2 Bft) 98,29 %
01.09.2021 12:00 16,4 C 16,8 C 15,2 C 83 % 1029,3 hPa 0,0 l/m 0,00 h 0,00 h 211 W/m 8,5 km/h (2 Bft) 97,71 %
01.09.2021 13:00 17,0 C 17,3 C 15,6 C 80 % 1029,1 hPa 0,0 l/m 0,00 h 0,00 h 205 W/m 6,7 km/h (2 Bft) 96,40 %
01.09.2021 14:00 17,0 C 16,8 C 15,2 C 80 % 1029,0 hPa 0,0 l/m 0,00 h 0,00 h 126 W/m 6,0 km/h (2 Bft) 99,21 %
01.09.2021 15:00 16,9 C 16,7 C 15,0 C 80 % 1028,9 hPa 0,0 l/m 0,00 h 0,00 h 103 W/m 3,4 km/h (1 Bft) 97,02 %
01.09.2021 16:00 17,1 C 16,7 C 15,0 C 78 % 1028,6 hPa 0,0 l/m 0,00 h 0,00 h 96 W/m 3,1 km/h (1 Bft) 97,57 %
01.09.2021 17:00 17,0 C 16,7 C 15,0 C 78 % 1028,5 hPa 0,0 l/m 0,00 h 0,00 h 59 W/m 3,3 km/h (1 Bft) 96,79 %
01.09.2021 18:00 17,0 C 16,6 C 14,9 C 78 % 1028,1 hPa 0,0 l/m 0,00 h 0,00 h 51 W/m 2,9 km/h (1 Bft) 98,93 %
01.09.2021 19:00 16,9 C 16,2 C 14,4 C 79 % 1028,0 hPa 0,0 l/m 0,00 h 0,00 h 20 W/m 2,0 km/h (1 Bft) 96,73 %
01.09.2021 20:00 16,5 C 15,6 C 13,9 C 79 % 1028,1 hPa 0,0 l/m 0,00 h 0,00 h 5 W/m 1,4 km/h (1 Bft) 97,58 %
01.09.2021 21:00 16,3 C 15,3 C 13,5 C 81 % 1028,5 hPa 0,0 l/m 0,00 h 0,00 h 0 W/m 1,3 km/h (1 Bft) 98,11 %
01.09.2021 22:00 15,9 C 15,0 C 13,4 C 84 % 1028,6 hPa 0,0 l/m 0,00 h 0,00 h 0 W/m 0,2 km/h (0 Bft) 97,94 %
01.09.2021 23:00 15,5 C 14,2 C 12,7 C 84 % 1028,4 hPa 0,0 l/m 0,00 h 0,00 h 0 W/m 0,3 km/h (0 Bft) 96,37 %
02.09.2021 00:00 14,0 C 12,0 C 11,0 C 87 % 1028,4 hPa 0,0 l/m 0,00 h 0,00 h 0 W/m 0,0 km/h (0 Bft) 98,24 %
02.09.2021 01:00 12,5 C 10,9 C 10,4 C 90 % 1028,3 hPa 0,0 l/m 0,00 h 0,00 h 0 W/m 0,0 km/h (0 Bft) 96,68 %
02.09.2021 02:00 11,6 C 10,3 C 9,9 C 92 % 1028,1 hPa 0,0 l/m 0,00 h 0,00 h 0 W/m 0,0 km/h (0 Bft) 96,80 %
02.09.2021 03:00 10,9 C 9,7 C 9,5 C 93 % 1028,0 hPa 0,0 l/m 0,00 h 0,00 h 0 W/m 0,0 km/h (0 Bft) 97,18 %
02.09.2021 04:00 10,5 C 9,6 C 9,5 C 94 % 1028,0 hPa 0,0 l/m 0,00 h 0,00 h 0 W/m 0,0 km/h (0 Bft) 98,02 %
02.09.2021 05:00 10,7 C 10,4 C 10,1 C 95 % 1027,7 hPa 0,0 l/m 0,00 h 0,00 h 0 W/m 0,1 km/h (0 Bft) 98,72 %
02.09.2021 06:00 11,2 C 10,6 C 10,6 C 96 % 1027,6 hPa 0,0 l/m 0,00 h 0,00 h 5 W/m 0,0 km/h (0 Bft) 96,76 %
02.09.2021 07:00 11,1 C 10,7 C 10,3 C 96 % 1027,5 hPa 0,0 l/m 0,00 h 0,00 h 22 W/m 0,3 km/h (0 Bft) 96,43 %
02.09.2021 08:00 11,9 C 12,1 C 11,4 C 96 % 1027,6 hPa 0,0 l/m 0,03 h 0,00 h 53 W/m 2,2 km/h (1 Bft) 98,97 %
02.09.2021 09:00 13,8 C 15,1 C 13,7 C 97 % 1027,8 hPa 0,0 l/m 0,30 h 0,00 h 175 W/m 5,4 km/h (1 Bft) 96,30 %
02.09.2021 10:00 15,9 C 17,9 C 15,8 C 91 % 1027,9 hPa 0,0 l/m 0,07 h 0,00 h 186 W/m 7,5 km/h (2 Bft) 96,87 %
02.09.2021 11:00 18,2 C 19,5 C 17,8 C 83 % 1027,8 hPa 0,0 l/m 0,43 h 0,00 h 385 W/m 7,8 km/h (2 Bft) 98,95 %
02.09.2021 12:00 20,4 C 22,7 C 21,1 C 75 % 1027,5 hPa 0,0 l/m 0,80 h 0,00 h 641 W/m 7,9 km/h (2 Bft) 97,39 %
02.09.2021 13:00 21,3 C 22,8 C 18,7 C 71 % 1027,1 hPa 0,0 l/m 1,00 h 0,00 h 734 W/m 7,5 km/h (2 Bft) 97,64 %
02.09.2021 14:00 23,0 C 28,7 C 19,4 C 65 % 1026,6 hPa 0,0 l/m 0,97 h 0,00 h 743 W/m 7,1 km/h (2 Bft) 96,70 %
02.09.2021 15:00 23,6 C 28,0 C 19,4 C 62 % 1026,1 hPa 0,0 l/m 0,83 h 0,00 h 590 W/m 7,1 km/h (2 Bft) 98,95 %
02.09.2021 16:00 23,7 C 28,9 C 19,7 C 62 % 1025,6 hPa 0,0 l/m 0,77 h 0,00 h 473 W/m 7,7 km/h (2 Bft) 97,65 %
02.09.2021 17:00 24,3 C 29,6 C 20,5 C 61 % 1025,1 hPa 0,0 l/m 1,00 h 0,00 h 383 W/m 8,0 km/h (2 Bft) 96,75 %
02.09.2021 18:00 24,2 C 27,2 C 20,2 C 63 % 1024,4 hPa 0,0 l/m 0,80 h 0,00 h 199 W/m 7,2 km/h (2 Bft) 98,45 %
02.09.2021 19:00 21,7 C 20,6 C 17,7 C 72 % 1024,0 hPa 0,0 l/m 0,00 h 0,00 h 39 W/m 5,0 km/h (1 Bft) 98,13 %
02.09.2021 20:00 19,6 C 18,2 C 15,6 C 80 % 1024,0 hPa 0,0 l/m 0,00 h 0,00 h 8 W/m 2,1 km/h (1 Bft) 96,29 %
02.09.2021 21:00 18,2 C 16,5 C 14,2 C 84 % 1024,0 hPa 0,0 l/m 0,00 h 0,00 h 0 W/m 0,6 km/h (0 Bft) 99,19 %
02.09.2021 22:00 17,0 C 15,6 C 13,7 C 87 % 1023,9 hPa 0,0 l/m 0,00 h 0,00 h 0 W/m 0,3 km/h (0 Bft) 96,70 %
02.09.2021 23:00 16,1 C 14,8 C 13,4 C 89 % 1023,8 hPa 0,0 l/m 0,00 h 0,00 h 0 W/m 0,1 km/h (0 Bft) 97,17 %
03.09.2021 00:00 15,4 C 14,2 C 12,7 C 91 % 1023,7 hPa 0,0 l/m 0,00 h 0,00 h 0 W/m 0,1 km/h (0 Bft) 94,11 %
03.09.2021 01:00 14,6 C 13,1 C 12,2 C 91 % 1023,5 hPa 0,0 l/m 0,00 h 0,00 h 0 W/m 0,0 km/h (0 Bft) 98,50 %
03.09.2021 02:00 13,9 C 12,6 C 11,7 C 93 % 1023,3 hPa 0,0 l/m 0,00 h 0,00 h 0 W/m 0,0 km/h (0 Bft) 94,85 %
03.09.2021 03:00 13,2 C 12,1 C 11,2 C 93 % 1023,0 hPa 0,0 l/m 0,00 h 0,00 h 0 W/m 0,0 km/h (0 Bft) 98,46 %
03.09.2021 04:00 12,8 C 11,8 C 11,1 C 94 % 1022,6 hPa 0,0 l/m 0,00 h 0,00 h 0 W/m 0,0 km/h (0 Bft) 96,96 %
03.09.2021 05:00 12,4 C 11,4 C 11,0 C 95 % 1022,2 hPa 0,0 l/m 0,00 h 0,00 h 0 W/m 0,0 km/h (0 Bft) 98,79 %
03.09.2021 06:00 11,9 C 10,9 C 10,6 C 95 % 1021,9 hPa 0,0 l/m 0,00 h 0,00 h 5 W/m 0,0 km/h (0 Bft) 93,81 %
03.09.2021 07:00 11,7 C 11,1 C 10,8 C 95 % 1021,9 hPa 0,0 l/m 0,00 h 0,00 h 19 W/m 0,0 km/h (0 Bft) 99,08 %
03.09.2021 08:00 12,7 C 12,8 C 12,1 C 96 % 1022,0 hPa 0,0 l/m 0,00 h 0,00 h 40 W/m 2,2 km/h (1 Bft) 96,70 %
03.09.2021 09:00 14,8 C 16,1 C 14,1 C 98 % 1021,9 hPa 0,0 l/m 0,83 h 0,00 h 269 W/m 4,1 km/h (1 Bft) 96,58 %
03.09.2021 10:00 16,9 C 20,2 C 17,1 C 95 % 1021,8 hPa 0,0 l/m 0,13 h 0,00 h 158 W/m 4,2 km/h (1 Bft) 98,08 %
03.09.2021 11:00 20,1 C 21,4 C 19,8 C 80 % 1021,7 hPa 0,0 l/m 0,33 h 0,00 h 320 W/m 5,5 km/h (1 Bft) 89,32 %
03.09.2021 12:00 23,3 C 26,2 C 24,1 C 69 % 1021,2 hPa 0,0 l/m 0,97 h 0,00 h 691 W/m 7,4 km/h (2 Bft) 93,48 %
03.09.2021 13:00 24,1 C 25,1 C 20,6 C 63 % 1020,7 hPa 0,0 l/m 0,90 h 0,00 h 685 W/m 7,1 km/h (2 Bft) 99,65 %
03.09.2021 14:00 25,7 C 31,8 C 21,1 C 58 % 1020,2 hPa 0,0 l/m 1,00 h 0,00 h 754 W/m 8,0 km/h (2 Bft) 96,44 %
03.09.2021 15:00 26,2 C 32,3 C 21,4 C 52 % 1019,7 hPa 0,0 l/m 1,00 h 0,00 h 692 W/m 7,7 km/h (2 Bft) 97,58 %
03.09.2021 16:00 26,6 C 34,0 C 22,0 C 54 % 1019,0 hPa 0,0 l/m 1,00 h 0,00 h 561 W/m 7,2 km/h (2 Bft) 98,00 %
03.09.2021 17:00 26,8 C 32,9 C 22,5 C 53 % 1018,6 hPa 0,0 l/m 1,00 h 0,00 h 401 W/m 7,5 km/h (2 Bft) 98,07 %
03.09.2021 18:00 26,4 C 29,4 C 21,8 C 57 % 1018,2 hPa 0,0 l/m 0,80 h 0,00 h 186 W/m 7,1 km/h (2 Bft) 97,00 %
03.09.2021 19:00 23,6 C 22,4 C 19,4 C 66 % 1018,1 hPa 0,0 l/m 0,00 h 0,00 h 38 W/m 6,8 km/h (2 Bft) 96,01 %
03.09.2021 20:00 21,6 C 20,0 C 17,2 C 72 % 1018,3 hPa 0,0 l/m 0,00 h 0,00 h 8 W/m 3,1 km/h (1 Bft) 97,86 %
03.09.2021 21:00 20,1 C 18,7 C 16,2 C 77 % 1018,6 hPa 0,0 l/m 0,00 h 0,00 h 0 W/m 3,9 km/h (1 Bft) 97,01 %
03.09.2021 22:00 18,9 C 17,6 C 15,3 C 81 % 1018,7 hPa 0,0 l/m 0,00 h 0,00 h 0 W/m 3,8 km/h (1 Bft) 97,24 %
03.09.2021 23:00 17,9 C 16,8 C 14,8 C 84 % 1018,7 hPa 0,0 l/m 0,00 h 0,00 h 0 W/m 4,1 km/h (1 Bft) 97,31 %
04.09.2021 00:00 17,3 C 16,5 C 14,5 C 85 % 1018,7 hPa 0,0 l/m 0,00 h 0,00 h 0 W/m 5,6 km/h (1 Bft) 96,87 %
04.09.2021 01:00 16,7 C 15,8 C 13,9 C 87 % 1018,6 hPa 0,0 l/m 0,00 h 0,00 h 0 W/m 4,5 km/h (1 Bft) 96,39 %
04.09.2021 02:00 16,2 C 15,0 C 13,5 C 89 % 1018,4 hPa 0,0 l/m 0,00 h 0,00 h 0 W/m 1,7 km/h (1 Bft) 98,07 %
04.09.2021 03:00 15,5 C 14,2 C 12,9 C 90 % 1018,2 hPa 0,0 l/m 0,00 h 0,00 h 0 W/m 1,4 km/h (1 Bft) 98,57 %
04.09.2021 04:00 14,9 C 13,9 C 12,8 C 92 % 1017,9 hPa 0,0 l/m 0,00 h 0,00 h 0 W/m 3,6 km/h (1 Bft) 95,87 %
04.09.2021 05:00 14,4 C 13,5 C 12,3 C 94 % 1017,9 hPa 0,0 l/m 0,00 h 0,00 h 0 W/m 5,0 km/h (1 Bft) 98,53 %
04.09.2021 06:00 14,0 C 13,1 C 12,3 C 95 % 1018,0 hPa 0,0 l/m 0,00 h 0,00 h 0 W/m 5,6 km/h (1 Bft) 97,72 %
04.09.2021 07:00 13,9 C 13,3 C 12,4 C 96 % 1018,4 hPa 0,0 l/m 0,00 h 0,00 h 15 W/m 10,0 km/h (2 Bft) 97,58 %
04.09.2021 08:00 13,8 C 13,6 C 12,8 C 96 % 1018,7 hPa 0,0 l/m 0,00 h 0,00 h 45 W/m 11,1 km/h (2 Bft) 97,61 %
04.09.2021 09:00 13,9 C 13,9 C 13,0 C 96 % 1018,9 hPa 0,0 l/m 0,00 h 0,00 h 87 W/m 9,9 km/h (2 Bft) 94,32 %
04.09.2021 10:00 14,2 C 14,7 C 13,6 C 95 % 1019,1 hPa 0,0 l/m 0,00 h 0,00 h 154 W/m 10,2 km/h (2 Bft) 96,50 %
04.09.2021 11:00 15,1 C 16,0 C 14,5 C 92 % 1019,3 hPa 0,0 l/m 0,13 h 0,00 h 259 W/m 10,4 km/h (2 Bft) 98,63 %
04.09.2021 12:00 16,4 C 17,7 C 16,0 C 88 % 1019,1 hPa 0,0 l/m 0,87 h 0,00 h 394 W/m 12,5 km/h (3 Bft) 96,82 %
04.09.2021 13:00 18,2 C 19,9 C 16,6 C 84 % 1018,7 hPa 0,0 l/m 0,97 h 0,00 h 644 W/m 13,8 km/h (3 Bft) 97,94 %
04.09.2021 14:00 19,9 C 24,8 C 17,3 C 79 % 1018,6 hPa 0,0 l/m 1,00 h 0,00 h 705 W/m 12,7 km/h (3 Bft) 98,53 %
04.09.2021 15:00 20,5 C 25,2 C 17,6 C 77 % 1018,4 hPa 0,0 l/m 1,00 h 0,00 h 642 W/m 13,2 km/h (3 Bft) 95,56 %
04.09.2021 16:00 20,9 C 26,6 C 18,2 C 76 % 1018,1 hPa 0,0 l/m 1,00 h 0,00 h 523 W/m 12,0 km/h (2 Bft) 98,85 %
04.09.2021 17:00 21,0 C 25,8 C 18,9 C 75 % 1017,9 hPa 0,0 l/m 1,00 h 0,00 h 371 W/m 13,4 km/h (3 Bft) 98,15 %
04.09.2021 18:00 20,9 C 24,2 C 18,7 C 75 % 1017,7 hPa 0,0 l/m 0,83 h 0,00 h 183 W/m 11,7 km/h (2 Bft) 96,21 %
04.09.2021 19:00 19,4 C 18,8 C 16,5 C 81 % 1017,7 hPa 0,0 l/m 0,00 h 0,00 h 34 W/m 6,7 km/h (2 Bft) 97,78 %
04.09.2021 20:00 17,9 C 16,6 C 15,0 C 85 % 1018,0 hPa 0,0 l/m 0,00 h 0,00 h 7 W/m 1,5 km/h (1 Bft) 98,01 %
04.09.2021 21:00 16,9 C 15,3 C 13,8 C 88 % 1018,6 hPa 0,0 l/m 0,00 h 0,00 h 0 W/m 0,4 km/h (0 Bft) 95,94 %
04.09.2021 22:00 16,1 C 15,0 C 13,4 C 91 % 1018,8 hPa 0,0 l/m 0,00 h 0,00 h 0 W/m 1,7 km/h (1 Bft) 99,22 %
04.09.2021 23:00 15,8 C 15,0 C 13,4 C 92 % 1018,9 hPa 0,0 l/m 0,00 h 0,00 h 0 W/m 2,9 km/h (1 Bft) 97,55 %
05.09.2021 00:00 15,4 C 14,4 C 13,4 C 92 % 1019,1 hPa 0,0 l/m 0,00 h 0,00 h 0 W/m 4,0 km/h (1 Bft) 96,61 %
05.09.2021 01:00 14,8 C 13,6 C 12,6 C 91 % 1019,1 hPa 0,0 l/m 0,00 h 0,00 h 0 W/m 0,5 km/h (0 Bft) 97,72 %
05.09.2021 02:00 14,2 C 13,3 C 12,3 C 92 % 1019,2 hPa 0,0 l/m 0,00 h 0,00 h 0 W/m 0,4 km/h (0 Bft) 98,07 %
05.09.2021 03:00 13,8 C 12,8 C 12,1 C 92 % 1019,2 hPa 0,0 l/m 0,00 h 0,00 h 0 W/m 0,0 km/h (0 Bft) 96,80 %
05.09.2021 04:00 13,4 C 12,2 C 11,7 C 93 % 1019,4 hPa 0,0 l/m 0,00 h 0,00 h 0 W/m 0,0 km/h (0 Bft) 95,77 %
05.09.2021 05:00 13,0 C 12,1 C 11,4 C 94 % 1019,5 hPa 0,0 l/m 0,00 h 0,00 h 0 W/m 0,1 km/h (0 Bft) 98,08 %
05.09.2021 06:00 12,5 C 11,7 C 11,1 C 95 % 1019,6 hPa 0,0 l/m 0,00 h 0,00 h 5 W/m 0,0 km/h (0 Bft) 97,94 %
05.09.2021 07:00 12,4 C 11,9 C 11,3 C 95 % 1020,0 hPa 0,0 l/m 0,00 h 0,00 h 19 W/m 0,0 km/h (0 Bft) 96,52 %
05.09.2021 08:00 13,0 C 13,0 C 12,2 C 96 % 1020,1 hPa 0,0 l/m 0,00 h 0,00 h 45 W/m 3,0 km/h (1 Bft) 97,82 %
05.09.2021 09:00 14,6 C 15,7 C 14,1 C 97 % 1020,5 hPa 0,0 l/m 0,57 h 0,00 h 219 W/m 5,0 km/h (1 Bft) 98,14 %
05.09.2021 10:00 17,0 C 19,2 C 16,7 C 91 % 1020,9 hPa 0,0 l/m 0,20 h 0,00 h 165 W/m 5,8 km/h (2 Bft) 97,51 %
05.09.2021 11:00 19,4 C 20,8 C 19,5 C 82 % 1021,3 hPa 0,0 l/m 0,40 h 0,00 h 345 W/m 6,1 km/h (2 Bft) 96,88 %
05.09.2021 12:00 22,2 C 24,8 C 22,8 C 74 % 1021,1 hPa 0,0 l/m 0,97 h 0,00 h 672 W/m 7,8 km/h (2 Bft) 97,58 %
05.09.2021 13:00 23,6 C 25,0 C 20,5 C 70 % 1021,0 hPa 0,0 l/m 0,87 h 0,00 h 659 W/m 8,7 km/h (2 Bft) 98,63 %
05.09.2021 14:00 25,2 C 31,3 C 21,0 C 65 % 1020,8 hPa 0,0 l/m 1,00 h 0,00 h 700 W/m 8,9 km/h (2 Bft) 97,09 %
05.09.2021 15:00 26,0 C 31,7 C 21,6 C 62 % 1020,7 hPa 0,0 l/m 1,00 h 0,00 h 650 W/m 8,2 km/h (2 Bft) 96,57 %
05.09.2021 16:00 26,5 C 33,3 C 22,4 C 60 % 1020,5 hPa 0,0 l/m 1,00 h 0,00 h 521 W/m 7,3 km/h (2 Bft) 99,53 %
05.09.2021 17:00 26,8 C 32,4 C 22,8 C 59 % 1020,4 hPa 0,0 l/m 1,00 h 0,00 h 372 W/m 6,8 km/h (2 Bft) 95,61 %
05.09.2021 18:00 26,6 C 29,3 C 22,1 C 59 % 1020,4 hPa 0,0 l/m 0,83 h 0,00 h 182 W/m 7,4 km/h (2 Bft) 98,15 %
05.09.2021 19:00 23,7 C 22,4 C 19,1 C 67 % 1020,7 hPa 0,0 l/m 0,00 h 0,00 h 30 W/m 7,0 km/h (2 Bft) 98,30 %
05.09.2021 20:00 21,7 C 19,9 C 16,9 C 72 % 1021,1 hPa 0,0 l/m 0,00 h 0,00 h 7 W/m 2,7 km/h (1 Bft) 96,70 %
05.09.2021 21:00 20,1 C 18,1 C 15,5 C 77 % 1021,6 hPa 0,0 l/m 0,00 h 0,00 h 0 W/m 0,6 km/h (0 Bft) 97,85 %
05.09.2021 22:00 18,5 C 16,8 C 14,4 C 81 % 1022,0 hPa 0,0 l/m 0,00 h 0,00 h 0 W/m 0,3 km/h (0 Bft) 99,26 %
05.09.2021 23:00 17,4 C 15,7 C 13,6 C 84 % 1022,2 hPa 0,0 l/m 0,00 h 0,00 h 0 W/m 0,0 km/h (0 Bft) 95,31 %
Min-Datum _ 02.09.21 02.09.21 02.09.21 03.09.21 04.09.21 - - - - 30.08.21 01.09.21
_ Min-Zeit 04:10 03:34 02:44 15:36 18:28 - - - - 03:28 00:02
Minimum _ 10,5 C 9,4 C 9,5 C 49 % 1017,6 hPa - - - - 0,0 km/h (0 Bft) 14,29 %
Max-Datum _ 03.09.21 03.09.21 03.09.21 30.08.21 01.09.21 30.08.21 31.08.21 30.08.21 31.08.21 31.08.21 30.08.21
_ Max-Zeit 17:54 16:18 12:24 00:00 11:50 00:00 18:08 13:32 12:36 17:08 00:00
Maximum _ 27,1 C 35,0 C 27,8 C 98 % 1029,6 hPa 0,0 l/m 0,07 h 0,03 h 954 W/m 32,2 km/h
N-NW (5 Bft)
100,00 %
Durchschnitt _ 17,4 C 17,7 C 15,5 C 84 % 1022,7 hPa #0,0 l/m #35:38 h #10 min. 247 W/m 6,1 km/h (2 Bft) 97,31 %
© 2021 W. Hausmann